createdAt,value
2018-03-03T00:00:10.046Z,-1.13
2018-03-03T00:02:43.306Z,-1.12
2018-03-03T00:05:16.590Z,-1.10
2018-03-03T00:07:49.836Z,-1.12
2018-03-03T00:10:23.129Z,-1.12
2018-03-03T00:12:56.389Z,-1.12
2018-03-03T01:46:36.072Z,-1.01
2018-03-03T01:49:09.352Z,-1.03
2018-03-03T01:51:43.382Z,-1.05
2018-03-03T01:54:16.680Z,-1.07
2018-03-03T01:56:49.945Z,-1.08
2018-03-03T01:59:23.231Z,-1.09
2018-03-03T03:33:04.662Z,-1.52
2018-03-03T03:35:38.689Z,-1.55
2018-03-03T03:38:12.729Z,-1.58
2018-03-03T03:40:46.022Z,-1.59
2018-03-03T03:43:19.306Z,-1.60
2018-03-03T04:47:42.004Z,-1.73
2018-03-03T04:50:15.271Z,-1.75
2018-03-03T04:52:48.553Z,-1.77
2018-03-03T04:55:21.916Z,-1.77
2018-03-03T04:57:55.215Z,-1.78
2018-03-03T06:02:25.203Z,-1.52
2018-03-03T06:05:03.949Z,-1.45
2018-03-03T06:07:42.812Z,-1.37
2018-03-03T06:10:21.573Z,-1.42
2018-03-03T06:12:54.852Z,-1.50
2018-03-03T06:15:28.143Z,-1.57
2018-03-03T06:18:02.572Z,-1.62
2018-03-03T06:20:35.853Z,-1.68
2018-03-03T06:23:09.132Z,-1.69
2018-03-03T06:25:42.401Z,-1.69
2018-03-03T06:28:15.664Z,-1.70
2018-03-03T06:30:48.949Z,-1.71
2018-03-03T06:33:22.231Z,-1.72
2018-03-03T06:35:55.491Z,-1.72
2018-03-03T06:38:28.784Z,-1.67
2018-03-03T06:41:02.037Z,-1.62
2018-03-03T06:43:36.077Z,-1.57
2018-03-03T06:46:09.382Z,-1.53
2018-03-03T06:48:42.632Z,-1.48
2018-03-03T06:51:16.677Z,-1.41
2018-03-03T06:53:49.970Z,-1.33
2018-03-03T06:56:24.002Z,-1.23
2018-03-03T06:58:57.262Z,-1.15
2018-03-03T07:01:30.554Z,-1.10
2018-03-03T07:04:04.593Z,-1.03
2018-03-03T07:06:37.876Z,-0.95
2018-03-03T07:09:11.136Z,-0.90
2018-03-03T07:11:45.193Z,-0.87
2018-03-03T07:17:17.330Z,-0.82
2018-03-03T07:19:50.592Z,-0.80
2018-03-03T07:22:23.898Z,-0.79
2018-03-03T07:24:57.178Z,-0.76
2018-03-03T07:27:30.464Z,-0.73
2018-03-03T07:30:03.733Z,-0.65
2018-03-03T07:32:37.229Z,-0.63
2018-03-03T07:35:10.498Z,-0.60
2018-03-03T07:37:44.555Z,-0.59
2018-03-03T07:40:17.817Z,-0.59
2018-03-03T07:42:51.861Z,-0.59
2018-03-03T07:45:25.158Z,-0.62
2018-03-03T07:47:58.444Z,-0.64
2018-03-03T07:50:31.700Z,-0.62
2018-03-03T07:53:05.748Z,-0.62
2018-03-03T07:55:39.012Z,-0.59
2018-03-03T07:58:31.048Z,-0.56
2018-03-03T08:01:05.108Z,-0.52
2018-03-03T08:03:38.413Z,-0.47
2018-03-03T08:06:11.676Z,-0.43
2018-03-03T08:08:44.956Z,-0.39
2018-03-03T08:11:18.217Z,-0.36
2018-03-03T08:13:51.607Z,-0.27
2018-03-03T08:16:24.871Z,-0.19
2018-03-03T08:18:58.166Z,-0.15
2018-03-03T08:21:31.431Z,-0.12
2018-03-03T08:24:04.738Z,-0.09
2018-03-03T08:26:38.002Z,-0.06
2018-03-03T08:29:12.064Z,-0.06
2018-03-03T08:31:45.330Z,-0.03
2018-03-03T08:34:18.637Z,0.01
2018-03-03T08:36:51.895Z,0.04
2018-03-03T08:39:25.942Z,0.05
2018-03-03T08:41:59.192Z,0.12
2018-03-03T08:44:33.246Z,0.22
2018-03-03T08:47:06.507Z,0.32
2018-03-03T08:49:40.568Z,0.46
2018-03-03T08:52:13.820Z,0.60
2018-03-03T08:54:47.117Z,0.70
2018-03-03T08:57:21.140Z,0.78
2018-03-03T08:59:54.683Z,0.83
2018-03-03T09:02:28.213Z,0.92
2018-03-03T09:05:01.470Z,1.04
2018-03-03T09:07:34.778Z,1.15
2018-03-03T09:10:08.059Z,1.21
2018-03-03T09:12:41.337Z,1.26
2018-03-03T09:15:14.597Z,1.29
2018-03-03T09:17:48.648Z,1.34
2018-03-03T09:20:21.888Z,1.36
2018-03-03T09:22:55.173Z,1.39
2018-03-03T09:25:28.454Z,1.42
2018-03-03T09:28:01.939Z,1.51
2018-03-03T09:30:35.320Z,1.56
2018-03-03T09:33:08.802Z,1.61
2018-03-03T09:35:42.200Z,1.69
2018-03-03T09:38:15.534Z,1.77
2018-03-03T09:40:48.956Z,1.83
2018-03-03T09:43:22.378Z,1.91
2018-03-03T09:45:55.831Z,1.97
2018-03-03T09:48:29.197Z,2.02
2018-03-03T09:51:02.760Z,2.06
2018-03-03T09:53:36.325Z,2.09
2018-03-03T09:56:09.687Z,2.08
2018-03-03T09:58:43.094Z,2.07
2018-03-03T10:01:16.424Z,2.08
2018-03-03T10:03:50.859Z,2.08
2018-03-03T10:06:24.230Z,2.08
2018-03-03T10:08:58.302Z,2.09
2018-03-03T10:11:31.678Z,2.10
2018-03-03T10:14:05.021Z,2.07
2018-03-03T10:16:38.399Z,2.05
2018-03-03T10:19:11.711Z,2.07
2018-03-03T10:21:45.017Z,2.03
2018-03-03T10:24:18.361Z,2.01
2018-03-03T10:26:51.678Z,2.01
2018-03-03T10:29:24.986Z,2.02
2018-03-03T10:31:58.308Z,2.02
2018-03-03T10:34:31.559Z,2.07
2018-03-03T10:37:04.920Z,2.11
2018-03-03T10:39:38.262Z,2.13
2018-03-03T10:42:11.551Z,2.12
2018-03-03T10:44:44.948Z,2.11
2018-03-03T10:47:18.351Z,2.09
2018-03-03T10:49:51.846Z,2.10
2018-03-03T10:52:25.146Z,2.16
2018-03-03T10:54:58.469Z,2.18
2018-03-03T10:57:31.729Z,2.23
2018-03-03T11:00:06.848Z,2.27
2018-03-03T11:02:41.506Z,2.29
2018-03-03T11:05:17.347Z,2.30
2018-03-03T11:07:50.982Z,2.31
2018-03-03T11:10:24.607Z,2.37
2018-03-03T11:12:58.424Z,2.43
2018-03-03T11:15:31.996Z,2.47
2018-03-03T11:18:05.354Z,2.53
2018-03-03T11:20:38.738Z,2.61
2018-03-03T11:23:12.173Z,2.71
2018-03-03T11:25:45.928Z,2.79
2018-03-03T11:28:19.309Z,2.86
2018-03-03T11:30:52.689Z,2.92
2018-03-03T11:33:26.084Z,2.98
2018-03-03T11:35:59.547Z,3.00
2018-03-03T11:38:32.907Z,3.08
2018-03-03T11:41:07.066Z,3.15
2018-03-03T11:43:40.435Z,3.22
2018-03-03T11:46:13.863Z,3.29
2018-03-03T11:48:47.203Z,3.32
2018-03-03T11:51:20.620Z,3.35
2018-03-03T11:53:54.805Z,3.41
2018-03-03T11:56:28.896Z,3.49
2018-03-03T11:59:02.190Z,3.55
2018-03-03T12:01:35.633Z,3.65
2018-03-03T12:04:09.093Z,3.73
2018-03-03T12:06:42.569Z,3.83
2018-03-03T12:09:15.835Z,3.97
2018-03-03T12:11:49.109Z,4.02
2018-03-03T12:14:23.134Z,4.05
2018-03-03T12:16:57.206Z,4.11
2018-03-03T12:19:30.476Z,4.18
2018-03-03T12:22:03.759Z,4.24
2018-03-03T12:24:37.081Z,4.30
2018-03-03T12:27:10.350Z,4.30
2018-03-03T12:29:43.609Z,4.27
2018-03-03T12:32:17.644Z,4.25
2018-03-03T12:34:50.893Z,4.22
2018-03-03T12:37:24.152Z,4.22
2018-03-03T12:39:57.413Z,4.20
2018-03-03T12:42:31.453Z,4.16
2018-03-03T12:45:04.714Z,4.19
2018-03-03T12:47:38.950Z,4.20
2018-03-03T12:50:12.200Z,4.21
2018-03-03T12:52:45.493Z,4.17
2018-03-03T12:55:18.753Z,4.13
2018-03-03T12:57:52.055Z,4.12
2018-03-03T13:00:25.280Z,4.10
2018-03-03T13:02:59.332Z,4.07
2018-03-03T13:05:32.610Z,4.08
2018-03-03T13:08:06.635Z,4.08
2018-03-03T13:10:39.907Z,4.08
2018-03-03T13:13:13.946Z,4.10
2018-03-03T13:15:47.226Z,4.12
2018-03-03T13:18:20.492Z,4.12
2018-03-03T13:20:54.518Z,4.13
2018-03-03T13:23:31.519Z,4.09
2018-03-03T13:26:04.770Z,4.07
2018-03-03T13:28:38.070Z,4.09
2018-03-03T13:31:11.324Z,4.12
2018-03-03T13:33:44.602Z,4.17
2018-03-03T13:36:17.920Z,4.20
2018-03-03T13:38:51.177Z,4.22
2018-03-03T13:41:24.473Z,4.19
2018-03-03T13:43:57.749Z,4.20
2018-03-03T13:46:31.032Z,4.20
2018-03-03T13:49:04.269Z,4.19
2018-03-03T13:51:37.537Z,4.20
2018-03-03T13:54:10.819Z,4.26
2018-03-03T13:56:44.073Z,4.31
2018-03-03T13:59:17.342Z,4.32
2018-03-03T14:01:50.617Z,4.32
2018-03-03T14:04:24.882Z,4.34
2018-03-03T14:06:58.163Z,4.37
2018-03-03T14:09:31.428Z,4.38
2018-03-03T14:12:04.680Z,4.37
2018-03-03T14:14:37.966Z,4.37
2018-03-03T14:17:11.228Z,4.36
2018-03-03T14:19:44.514Z,4.36
2018-03-03T14:22:17.750Z,4.35
2018-03-03T14:24:51.029Z,4.33
2018-03-03T14:27:24.313Z,4.32
2018-03-03T14:29:57.591Z,4.36
2018-03-03T14:32:30.852Z,4.41
2018-03-03T14:35:04.950Z,4.41
2018-03-03T14:37:40.459Z,4.38
2018-03-03T14:40:13.734Z,4.32
2018-03-03T14:42:46.996Z,4.27
2018-03-03T14:45:21.041Z,4.23
2018-03-03T14:47:54.298Z,4.17
2018-03-03T14:50:27.575Z,4.12
2018-03-03T14:53:00.830Z,4.05
2018-03-03T14:55:34.125Z,3.98
2018-03-03T14:58:07.381Z,3.93
2018-03-03T15:00:41.572Z,3.89
2018-03-03T15:03:15.008Z,3.85
2018-03-03T15:05:49.044Z,3.84
2018-03-03T15:08:22.345Z,3.82
2018-03-03T15:10:55.604Z,3.80
2018-03-03T15:13:28.898Z,3.78
2018-03-03T15:16:02.214Z,3.75
2018-03-03T15:18:35.493Z,3.72
2018-03-03T15:21:08.759Z,3.69
2018-03-03T15:23:42.040Z,3.66
2018-03-03T15:26:15.291Z,3.64
2018-03-03T15:28:48.574Z,3.61
2018-03-03T15:31:22.089Z,3.58
2018-03-03T15:33:55.363Z,3.56
2018-03-03T15:36:28.615Z,3.58
2018-03-03T15:39:01.894Z,3.60
2018-03-03T15:41:35.154Z,3.61
2018-03-03T15:44:08.441Z,3.60
2018-03-03T15:46:41.706Z,3.59
2018-03-03T15:49:14.979Z,3.58
2018-03-03T15:51:48.226Z,3.54
2018-03-03T15:54:21.517Z,3.52
2018-03-03T15:56:54.776Z,3.50
2018-03-03T15:59:28.076Z,3.52
2018-03-03T16:02:01.341Z,3.52
2018-03-03T16:04:34.613Z,3.54
2018-03-03T16:07:07.874Z,3.54
2018-03-03T16:09:41.927Z,3.53
2018-03-03T16:12:15.248Z,3.55
2018-03-03T16:14:48.518Z,3.52
2018-03-03T16:17:21.865Z,3.50
2018-03-03T16:19:55.977Z,3.50
2018-03-03T16:22:30.129Z,3.46
2018-03-03T16:25:03.457Z,3.43
2018-03-03T16:27:36.798Z,3.40
2018-03-03T16:30:12.254Z,3.40
2018-03-03T16:32:45.547Z,3.36
2018-03-03T16:35:18.872Z,3.33
2018-03-03T16:37:52.166Z,3.31
2018-03-03T16:40:25.473Z,3.30
2018-03-03T16:42:58.801Z,3.25
2018-03-03T16:45:32.894Z,3.23
2018-03-03T16:48:06.182Z,3.20
2018-03-03T16:50:39.442Z,3.20
2018-03-03T16:53:12.732Z,3.18
2018-03-03T16:55:46.018Z,3.15
2018-03-03T16:58:19.508Z,3.12
2018-03-03T17:00:52.798Z,3.09
2018-03-03T17:03:26.929Z,3.04
2018-03-03T17:06:02.658Z,3.04
2018-03-03T17:08:36.710Z,3.12
2018-03-03T17:11:09.965Z,3.17
2018-03-03T17:13:43.252Z,3.18
2018-03-03T17:16:16.497Z,3.13
2018-03-03T17:18:49.769Z,3.09
2018-03-03T17:21:23.053Z,3.11
2018-03-03T17:23:56.337Z,3.16
2018-03-03T17:26:30.360Z,3.22
2018-03-03T17:29:03.688Z,3.15
2018-03-03T17:31:36.933Z,3.08
2018-03-03T17:34:10.223Z,2.99
2018-03-03T17:36:44.237Z,2.93
2018-03-03T17:39:18.514Z,2.85
2018-03-03T17:41:53.221Z,2.78
2018-03-03T17:44:27.580Z,2.68
2018-03-03T17:47:04.387Z,2.63
2018-03-03T17:52:20.430Z,2.54
2018-03-03T17:54:54.721Z,2.53
2018-03-03T17:57:28.224Z,2.56
2018-03-03T18:00:06.460Z,2.59
2018-03-03T18:02:41.965Z,2.59
2018-03-03T18:05:16.180Z,2.57
2018-03-03T18:07:51.759Z,2.54
2018-03-03T18:10:28.559Z,2.53
2018-03-03T18:13:02.749Z,2.55
2018-03-03T18:15:36.606Z,2.58
2018-03-03T18:18:10.844Z,2.61
2018-03-03T18:20:45.577Z,2.64
2018-03-03T18:23:19.591Z,2.67
2018-03-03T18:25:54.850Z,2.69
2018-03-03T18:28:28.103Z,2.73
2018-03-03T18:31:02.150Z,2.74
2018-03-03T18:33:35.429Z,2.75
2018-03-03T18:36:09.452Z,2.73
2018-03-03T18:38:42.737Z,2.74
2018-03-03T18:41:16.032Z,2.74
2018-03-03T18:43:50.046Z,2.76
2018-03-03T18:46:23.326Z,2.75
2018-03-03T18:48:56.603Z,2.75
2018-03-03T18:51:29.878Z,2.78
2018-03-03T18:54:03.150Z,2.78
2018-03-03T18:56:36.422Z,2.77
2018-03-03T18:59:09.736Z,2.77
2018-03-03T19:01:43.021Z,2.79
2018-03-03T19:04:16.289Z,2.81
2018-03-03T19:06:50.362Z,2.81
2018-03-03T19:09:23.619Z,2.80
2018-03-03T19:11:56.897Z,2.81
2018-03-03T19:14:30.172Z,2.82
2018-03-03T19:17:04.232Z,2.82
2018-03-03T19:19:37.507Z,2.83
2018-03-03T19:22:10.756Z,2.82
2018-03-03T19:24:44.030Z,2.82
2018-03-03T19:27:17.291Z,2.83
2018-03-03T19:29:55.294Z,2.86
2018-03-03T19:32:28.550Z,2.87
2018-03-03T19:35:01.843Z,2.87
2018-03-03T19:37:35.123Z,2.86
2018-03-03T19:40:08.413Z,2.86
2018-03-03T19:42:41.662Z,2.85
2018-03-03T19:45:14.946Z,2.84
2018-03-03T19:47:48.214Z,2.84
2018-03-03T19:50:21.495Z,2.84
2018-03-03T19:52:54.754Z,2.85
2018-03-03T19:55:28.022Z,2.87
2018-03-03T19:58:01.289Z,2.85
2018-03-03T20:00:34.577Z,2.81
2018-03-03T20:03:07.861Z,2.77
2018-03-03T20:05:41.117Z,2.74
2018-03-03T20:08:14.404Z,2.72
2018-03-03T20:10:47.657Z,2.71
2018-03-03T20:13:20.934Z,2.73
2018-03-03T20:15:54.193Z,2.75
2018-03-03T20:18:27.540Z,2.76
2018-03-03T20:21:00.809Z,2.78
2018-03-03T20:23:34.152Z,2.76
2018-03-03T20:26:07.410Z,2.76
2018-03-03T20:28:40.701Z,2.78
2018-03-03T20:31:14.009Z,2.79
2018-03-03T20:33:47.262Z,2.81
2018-03-03T20:36:20.537Z,2.81
2018-03-03T20:38:53.796Z,2.83
2018-03-03T20:41:27.082Z,2.84
2018-03-03T20:44:00.340Z,2.86
2018-03-03T20:46:33.605Z,2.86
2018-03-03T20:49:06.854Z,2.86
2018-03-03T20:51:40.140Z,2.85
2018-03-03T20:54:13.394Z,2.85
2018-03-03T20:56:46.666Z,2.84
2018-03-03T20:59:19.918Z,2.85
2018-03-03T21:01:53.195Z,2.85
2018-03-03T21:04:26.473Z,2.84
2018-03-03T21:06:59.726Z,2.85
2018-03-03T21:09:33.018Z,2.87
2018-03-03T21:12:21.171Z,2.88
2018-03-03T21:14:55.208Z,2.88
2018-03-03T21:17:28.490Z,2.89
2018-03-03T21:20:02.531Z,2.89
2018-03-03T21:22:35.776Z,2.89
2018-03-03T21:25:09.826Z,2.88
2018-03-03T21:27:43.086Z,2.89
2018-03-03T21:30:16.376Z,2.91
2018-03-03T21:32:49.665Z,2.91
2018-03-03T21:35:22.922Z,2.91
2018-03-03T21:37:56.210Z,2.91
2018-03-03T21:40:29.467Z,2.92
2018-03-03T21:43:02.755Z,2.91
2018-03-03T21:45:36.773Z,2.90
2018-03-03T21:48:10.818Z,2.90
2018-03-03T21:50:44.108Z,2.89
2018-03-03T21:53:17.377Z,2.88
2018-03-03T21:55:51.432Z,2.86
2018-03-03T21:58:24.681Z,2.85
2018-03-03T22:00:57.955Z,2.86
2018-03-03T22:03:31.228Z,2.85
2018-03-03T22:06:04.519Z,2.85
2018-03-03T22:08:37.801Z,2.85
2018-03-03T22:11:11.086Z,2.85
2018-03-03T22:13:44.341Z,2.84
2018-03-03T22:16:17.613Z,2.84
2018-03-03T22:18:50.898Z,2.84
2018-03-03T22:21:24.144Z,2.82
2018-03-03T22:23:57.426Z,2.82
2018-03-03T22:26:31.465Z,2.83
2018-03-03T22:29:04.758Z,2.83
2018-03-03T22:31:38.001Z,2.82
2018-03-03T22:34:11.280Z,2.82
2018-03-03T22:36:44.561Z,2.82
2018-03-03T22:39:17.845Z,2.83
2018-03-03T22:41:51.110Z,2.82
2018-03-03T22:44:24.404Z,2.82
2018-03-03T22:46:57.655Z,2.82
2018-03-03T22:49:30.926Z,2.82
2018-03-03T22:52:04.948Z,2.81
2018-03-03T22:54:38.228Z,2.82
2018-03-03T22:57:11.508Z,2.81
2018-03-03T22:59:44.769Z,2.81
2018-03-03T23:02:18.817Z,2.82
2018-03-03T23:04:52.156Z,2.82
2018-03-03T23:07:25.425Z,2.80
2018-03-03T23:09:58.679Z,2.79
2018-03-03T23:12:31.950Z,2.80
2018-03-03T23:15:05.965Z,2.79
2018-03-03T23:17:39.261Z,2.78
2018-03-03T23:20:12.523Z,2.78
2018-03-03T23:22:45.794Z,2.79
2018-03-03T23:25:19.047Z,2.79
2018-03-03T23:27:52.328Z,2.80
2018-03-03T23:30:25.581Z,2.80
2018-03-03T23:32:58.871Z,2.78
2018-03-03T23:35:32.119Z,2.77
2018-03-03T23:38:05.401Z,2.74
2018-03-03T23:40:39.421Z,2.73
2018-03-03T23:43:12.736Z,2.72
2018-03-03T23:45:45.986Z,2.73
2018-03-03T23:48:19.275Z,2.73
2018-03-03T23:50:52.521Z,2.72
2018-03-03T23:53:25.806Z,2.71
2018-03-03T23:55:59.828Z,2.71
2018-03-03T23:58:33.123Z,2.71
